createdAt,value
2018-04-19T00:05:16.416Z,1024.17
2018-04-19T00:05:17.531Z,1024.18
2018-04-19T00:06:17.529Z,1024.17
2018-04-19T00:07:17.531Z,1024.20
2018-04-19T00:08:17.532Z,1024.23
2018-04-19T00:09:17.537Z,1024.20
2018-04-19T00:10:17.529Z,1024.22
2018-04-19T00:11:17.526Z,1024.26
2018-04-19T00:12:17.529Z,1024.22
2018-04-19T00:13:17.536Z,1024.22
2018-04-19T00:14:17.524Z,1024.17
2018-04-19T00:15:17.524Z,1024.23
2018-04-19T00:16:17.524Z,1024.16
2018-04-19T00:17:17.523Z,1024.20
2018-04-19T00:18:17.522Z,1024.18
2018-04-19T00:19:17.520Z,1024.19
2018-04-19T00:20:17.521Z,1024.17
2018-04-19T00:21:17.521Z,1024.12
2018-04-19T00:22:17.523Z,1024.11
2018-04-19T00:23:17.522Z,1024.13
2018-04-19T00:24:17.517Z,1024.14
2018-04-19T00:25:17.516Z,1024.15
2018-04-19T00:26:17.519Z,1024.16
2018-04-19T00:27:17.519Z,1024.21
2018-04-19T00:28:17.514Z,1024.14
2018-04-19T00:29:17.515Z,1024.12
2018-04-19T00:30:17.513Z,1024.17
2018-04-19T00:31:17.559Z,1024.12
2018-04-19T00:32:17.513Z,1024.14
2018-04-19T00:33:17.512Z,1024.14
2018-04-19T00:34:17.511Z,1024.11
2018-04-19T00:35:17.511Z,1024.08
2018-04-19T00:36:17.509Z,1024.12
2018-04-19T00:37:17.510Z,1024.09
2018-04-19T00:38:17.507Z,1024.04
2018-04-19T00:39:17.507Z,1024.08
2018-04-19T00:40:17.511Z,1024.06
2018-04-19T00:41:17.511Z,1024.05
2018-04-19T00:42:17.505Z,1024.01
2018-04-19T00:43:17.505Z,1024.03
2018-04-19T00:44:17.508Z,1023.99
2018-04-19T00:45:17.508Z,1023.98
2018-04-19T00:46:17.503Z,1023.97
2018-04-19T00:47:17.501Z,1023.97
2018-04-19T00:48:17.501Z,1023.94
2018-04-19T00:49:17.500Z,1023.96
2018-04-19T00:50:17.504Z,1023.97
2018-04-19T00:51:17.498Z,1023.91
2018-04-19T00:52:17.502Z,1023.93
2018-04-19T00:53:17.497Z,1023.89
2018-04-19T00:54:17.500Z,1023.88
2018-04-19T00:55:17.499Z,1023.91
2018-04-19T00:56:17.494Z,1023.91
2018-04-19T00:57:17.494Z,1023.89
2018-04-19T00:58:17.497Z,1023.89
2018-04-19T00:59:17.496Z,1023.88
2018-04-19T01:00:17.491Z,1023.90
2018-04-19T01:01:17.497Z,1023.85
2018-04-19T01:02:17.489Z,1023.87
2018-04-19T01:03:17.489Z,1023.88
2018-04-19T01:04:17.487Z,1023.86
2018-04-19T01:05:17.487Z,1023.85
2018-04-19T01:06:17.490Z,1023.84
2018-04-19T01:07:17.489Z,1023.82
2018-04-19T01:08:17.487Z,1023.82
2018-04-19T01:09:17.483Z,1023.82
2018-04-19T01:10:17.546Z,1023.83
2018-04-19T01:11:17.481Z,1023.81
2018-04-19T01:12:17.484Z,1023.79
2018-04-19T01:13:17.485Z,1023.80
2018-04-19T01:14:17.479Z,1023.78
2018-04-19T01:15:17.478Z,1023.73
2018-04-19T01:16:17.478Z,1023.79
2018-04-19T01:17:17.477Z,1023.79
2018-04-19T01:18:17.478Z,1023.75
2018-04-19T01:19:17.478Z,1023.71
2018-04-19T01:20:17.474Z,1023.74
2018-04-19T01:21:17.475Z,1023.73
2018-04-19T01:22:17.475Z,1023.73
2018-04-19T01:23:17.470Z,1023.74
2018-04-19T01:24:17.472Z,1023.71
2018-04-19T01:25:17.477Z,1023.70
2018-04-19T01:26:17.467Z,1023.70
2018-04-19T01:27:17.467Z,1023.70
2018-04-19T01:28:17.465Z,1023.71
2018-04-19T01:29:17.464Z,1023.68
2018-04-19T01:30:17.463Z,1023.70
2018-04-19T01:31:17.462Z,1023.72
2018-04-19T01:32:17.462Z,1023.66
2018-04-19T01:33:17.461Z,1023.68
2018-04-19T01:34:17.458Z,1023.66
2018-04-19T01:35:17.457Z,1023.65
2018-04-19T01:36:17.461Z,1023.62
2018-04-19T01:37:17.459Z,1023.61
2018-04-19T01:38:17.458Z,1023.64
2018-04-19T01:39:17.457Z,1023.61
2018-04-19T01:40:17.452Z,1023.61
2018-04-19T01:41:17.451Z,1023.64
2018-04-19T01:42:17.450Z,1023.62
2018-04-19T01:43:17.448Z,1023.61
2018-04-19T01:44:17.449Z,1023.64
2018-04-19T01:45:17.448Z,1023.57
2018-04-19T01:46:17.444Z,1023.62
2018-04-19T01:47:17.445Z,1023.61
2018-04-19T01:48:17.444Z,1023.61
2018-04-19T01:49:17.442Z,1023.57
2018-04-19T01:50:17.445Z,1023.58
2018-04-19T01:51:17.443Z,1023.58
2018-04-19T01:52:17.439Z,1023.56
2018-04-19T01:53:17.438Z,1023.61
2018-04-19T01:54:17.437Z,1023.59
2018-04-19T01:55:17.434Z,1023.53
2018-04-19T01:56:17.440Z,1023.56
2018-04-19T01:57:17.437Z,1023.56
2018-04-19T01:58:17.431Z,1023.57
2018-04-19T01:59:17.430Z,1023.55
2018-04-19T02:00:17.430Z,1023.54
2018-04-19T02:01:17.429Z,1023.58
2018-04-19T02:02:17.428Z,1023.57
2018-04-19T02:03:17.426Z,1023.51
2018-04-19T02:04:17.427Z,1023.53
2018-04-19T02:05:17.425Z,1023.55
2018-04-19T02:06:17.422Z,1023.55
2018-04-19T02:07:17.429Z,1023.52
2018-04-19T02:08:17.425Z,1023.54
2018-04-19T02:09:17.423Z,1023.52
2018-04-19T02:10:17.418Z,1023.53
2018-04-19T02:11:17.421Z,1023.55
2018-04-19T02:12:17.416Z,1023.53
2018-04-19T02:13:17.415Z,1023.48
2018-04-19T02:14:17.413Z,1023.50
2018-04-19T02:15:17.416Z,1023.51
2018-04-19T02:16:17.414Z,1023.55
2018-04-19T02:17:17.413Z,1023.51
2018-04-19T02:18:17.412Z,1023.51
2018-04-19T02:19:17.407Z,1023.51
2018-04-19T02:20:17.410Z,1023.47
2018-04-19T02:21:17.414Z,1023.48
2018-04-19T02:22:17.408Z,1023.46
2018-04-19T02:23:17.403Z,1023.45
2018-04-19T02:24:17.401Z,1023.45
2018-04-19T02:25:17.402Z,1023.43
2018-04-19T02:26:17.399Z,1023.45
2018-04-19T02:27:17.397Z,1023.43
2018-04-19T02:28:17.396Z,1023.37
2018-04-19T02:29:17.396Z,1023.44
2018-04-19T02:30:17.398Z,1023.42
2018-04-19T02:31:17.398Z,1023.44
2018-04-19T02:32:17.392Z,1023.39
2018-04-19T02:33:17.391Z,1023.43
2018-04-19T02:34:17.393Z,1023.39
2018-04-19T02:35:17.393Z,1023.38
2018-04-19T02:36:17.386Z,1023.37
2018-04-19T02:37:17.386Z,1023.34
2018-04-19T02:38:17.388Z,1023.31
2018-04-19T02:39:17.384Z,1023.30
2018-04-19T02:40:17.384Z,1023.28
2018-04-19T02:41:17.382Z,1023.26
2018-04-19T02:42:17.380Z,1023.27
2018-04-19T02:43:17.380Z,1023.26
2018-04-19T02:44:17.377Z,1023.20
2018-04-19T02:45:17.377Z,1023.24
2018-04-19T02:46:17.374Z,1023.22
2018-04-19T02:47:17.373Z,1023.18
2018-04-19T02:48:17.376Z,1023.22
2018-04-19T02:49:17.376Z,1023.23
2018-04-19T02:50:17.371Z,1023.19
2018-04-19T02:51:17.367Z,1023.18
2018-04-19T02:52:17.375Z,1023.16
2018-04-19T02:53:17.371Z,1023.16
2018-04-19T02:54:17.365Z,1023.15
2018-04-19T02:55:17.365Z,1023.13
2018-04-19T02:56:17.363Z,1023.12
2018-04-19T02:57:17.361Z,1023.11
2018-04-19T02:58:17.359Z,1023.14
2018-04-19T02:59:17.359Z,1023.19
2018-04-19T03:00:17.357Z,1023.18
2018-04-19T03:01:17.356Z,1023.16
2018-04-19T03:02:17.358Z,1023.18
2018-04-19T03:03:17.356Z,1023.16
2018-04-19T03:04:17.351Z,1023.15
2018-04-19T03:05:17.350Z,1023.12
2018-04-19T03:06:17.351Z,1023.10
2018-04-19T03:07:17.351Z,1023.12
2018-04-19T03:08:17.351Z,1023.14
2018-04-19T03:09:17.344Z,1023.13
2018-04-19T03:10:17.342Z,1023.07
2018-04-19T03:11:17.342Z,1023.10
2018-04-19T03:12:17.340Z,1023.08
2018-04-19T03:13:17.339Z,1023.09
2018-04-19T03:14:17.340Z,1023.10
2018-04-19T03:15:17.345Z,1023.10
2018-04-19T03:16:17.333Z,1023.05
2018-04-19T03:17:17.331Z,1023.04
2018-04-19T03:18:17.330Z,1023.02
2018-04-19T03:19:17.328Z,1023.01
2018-04-19T03:20:17.327Z,1023.00
2018-04-19T03:21:17.325Z,1023.07
2018-04-19T03:22:17.324Z,1022.99
2018-04-19T03:23:17.322Z,1023.01
2018-04-19T03:24:17.320Z,1023.04
2018-04-19T03:25:17.321Z,1023.04
2018-04-19T03:26:17.320Z,1022.98
2018-04-19T03:27:17.318Z,1022.98
2018-04-19T03:28:17.314Z,1022.94
2018-04-19T03:29:17.311Z,1022.97
2018-04-19T03:30:17.313Z,1022.97
2018-04-19T03:31:17.307Z,1022.93
2018-04-19T03:32:17.309Z,1022.93
2018-04-19T03:33:17.307Z,1022.98
2018-04-19T03:34:17.302Z,1022.91
2018-04-19T03:35:17.299Z,1022.94
2018-04-19T03:36:17.298Z,1022.96
2018-04-19T03:37:17.296Z,1022.97
2018-04-19T03:38:17.294Z,1023.03
2018-04-19T03:39:17.291Z,1022.96
2018-04-19T03:40:17.290Z,1022.99
2018-04-19T03:41:17.288Z,1022.95
2018-04-19T03:42:17.284Z,1023.00
2018-04-19T03:43:17.283Z,1022.99
2018-04-19T03:44:17.287Z,1022.96
2018-04-19T03:45:17.283Z,1022.97
2018-04-19T03:46:17.280Z,1022.93
2018-04-19T03:47:17.278Z,1022.97
2018-04-19T03:48:17.272Z,1022.98
2018-04-19T03:49:17.270Z,1022.97
2018-04-19T03:50:17.266Z,1023.00
2018-04-19T03:51:17.269Z,1023.02
2018-04-19T03:52:17.264Z,1023.03
2018-04-19T03:53:17.262Z,1023.00
2018-04-19T03:54:17.258Z,1023.01
2018-04-19T03:55:17.257Z,1023.03
2018-04-19T03:56:17.253Z,1023.00
2018-04-19T03:57:17.251Z,1022.98
2018-04-19T03:58:17.252Z,1022.97
2018-04-19T03:59:17.251Z,1022.94
2018-04-19T04:00:17.244Z,1023.01
2018-04-19T04:01:17.268Z,1022.98
2018-04-19T04:02:17.252Z,1022.98
2018-04-19T04:03:17.237Z,1022.97
2018-04-19T04:04:17.240Z,1023.01
2018-04-19T04:05:17.236Z,1022.94
2018-04-19T04:06:17.231Z,1022.95
2018-04-19T04:07:17.229Z,1022.98
2018-04-19T04:08:17.227Z,1022.92
2018-04-19T04:09:17.225Z,1022.90
2018-04-19T04:10:17.225Z,1022.93
2018-04-19T04:11:17.219Z,1022.93
2018-04-19T04:12:17.217Z,1022.90
2018-04-19T04:13:17.214Z,1022.94
2018-04-19T04:14:17.213Z,1022.88
2018-04-19T04:15:17.210Z,1022.96
2018-04-19T04:16:17.214Z,1022.94
2018-04-19T04:17:17.208Z,1022.97
2018-04-19T04:18:17.205Z,1022.93
2018-04-19T04:19:17.202Z,1022.95
2018-04-19T04:20:17.198Z,1022.94
2018-04-19T04:21:17.194Z,1022.90
2018-04-19T04:22:17.192Z,1022.93
2018-04-19T04:23:17.190Z,1022.93
2018-04-19T04:24:17.188Z,1022.86
2018-04-19T04:25:17.185Z,1022.89
2018-04-19T04:26:17.182Z,1022.87
2018-04-19T04:27:17.179Z,1022.90
2018-04-19T04:28:17.180Z,1022.88
2018-04-19T04:29:17.175Z,1022.84
2018-04-19T04:30:17.177Z,1022.88
2018-04-19T04:31:17.191Z,1022.85
2018-04-19T04:32:17.172Z,1022.87
2018-04-19T04:33:17.164Z,1022.82
2018-04-19T04:34:17.161Z,1022.84
2018-04-19T04:35:17.184Z,1022.87
2018-04-19T04:36:17.163Z,1022.85
2018-04-19T04:37:17.162Z,1022.88
2018-04-19T04:38:17.151Z,1022.85
2018-04-19T04:39:17.155Z,1022.85
2018-04-19T04:40:17.148Z,1022.85
2018-04-19T04:41:17.143Z,1022.86
2018-04-19T04:42:17.140Z,1022.89
2018-04-19T04:43:17.137Z,1022.84
2018-04-19T04:44:17.135Z,1022.93
2018-04-19T04:45:17.137Z,1022.86
2018-04-19T04:46:17.128Z,1022.87
2018-04-19T04:47:17.126Z,1022.90
2018-04-19T04:48:17.127Z,1022.91
2018-04-19T04:49:17.125Z,1022.93
2018-04-19T04:50:17.121Z,1022.93
2018-04-19T04:51:17.119Z,1022.91
2018-04-19T04:52:17.113Z,1022.92
2018-04-19T04:53:17.110Z,1022.93
2018-04-19T04:54:17.106Z,1022.94
2018-04-19T04:55:17.106Z,1022.93
2018-04-19T04:56:17.103Z,1022.95
2018-04-19T04:57:17.099Z,1022.93
2018-04-19T04:58:17.097Z,1022.96
2018-04-19T04:59:17.093Z,1022.96
2018-04-19T05:00:17.092Z,1022.94
2018-04-19T05:01:17.088Z,1022.93
2018-04-19T05:02:17.089Z,1022.97
2018-04-19T05:03:17.087Z,1023.00
2018-04-19T05:04:17.079Z,1023.01
2018-04-19T05:05:17.078Z,1023.01
2018-04-19T05:06:17.073Z,1023.10
2018-04-19T05:07:17.072Z,1023.08
2018-04-19T05:08:17.073Z,1023.02
2018-04-19T05:09:17.071Z,1023.06
2018-04-19T05:10:17.064Z,1023.08
2018-04-19T05:11:17.062Z,1023.08
2018-04-19T05:12:17.060Z,1023.12
2018-04-19T05:13:17.060Z,1023.09
2018-04-19T05:14:17.057Z,1023.14
2018-04-19T05:15:17.054Z,1023.13
2018-04-19T05:16:17.057Z,1023.10
2018-04-19T05:17:17.052Z,1023.08
2018-04-19T05:18:17.050Z,1023.11
2018-04-19T05:19:17.049Z,1023.15
2018-04-19T05:20:17.104Z,1023.15
2018-04-19T05:21:17.051Z,1023.19
2018-04-19T05:22:17.046Z,1023.18
2018-04-19T05:23:17.044Z,1023.20
2018-04-19T05:24:17.049Z,1023.17
2018-04-19T05:25:17.045Z,1023.22
2018-04-19T05:26:17.063Z,1023.27
2018-04-19T05:27:17.044Z,1023.23
2018-04-19T05:28:17.048Z,1023.27
2018-04-19T05:29:17.049Z,1023.23
2018-04-19T05:30:17.044Z,1023.28
2018-04-19T05:31:17.053Z,1023.31
2018-04-19T05:32:17.053Z,1023.31
2018-04-19T05:33:17.052Z,1023.29
2018-04-19T05:34:17.051Z,1023.33
2018-04-19T05:35:17.051Z,1023.36
2018-04-19T05:36:17.052Z,1023.40
2018-04-19T05:37:17.053Z,1023.39
2018-04-19T05:38:17.057Z,1023.41
2018-04-19T05:39:17.056Z,1023.39
2018-04-19T05:40:17.059Z,1023.41
2018-04-19T05:41:17.062Z,1023.50
2018-04-19T05:42:17.067Z,1023.44
2018-04-19T05:43:17.071Z,1023.48
2018-04-19T05:44:17.067Z,1023.48
2018-04-19T05:45:17.071Z,1023.47
2018-04-19T05:46:17.079Z,1023.53
2018-04-19T05:47:17.081Z,1023.49
2018-04-19T05:48:17.080Z,1023.50
2018-04-19T05:49:17.083Z,1023.58
2018-04-19T05:50:17.087Z,1023.58
2018-04-19T05:51:17.089Z,1023.61
2018-04-19T05:52:17.093Z,1023.58
2018-04-19T05:53:17.097Z,1023.57
2018-04-19T05:54:17.101Z,1023.56
2018-04-19T05:55:17.106Z,1023.59
2018-04-19T05:56:17.113Z,1023.59
2018-04-19T05:57:17.114Z,1023.61
2018-04-19T05:58:17.118Z,1023.63
2018-04-19T05:59:17.123Z,1023.64
2018-04-19T06:00:17.136Z,1023.58
2018-04-19T06:01:17.136Z,1023.63
2018-04-19T06:02:17.145Z,1023.61
2018-04-19T06:03:17.147Z,1023.65
2018-04-19T06:04:17.153Z,1023.64
2018-04-19T06:05:17.157Z,1023.62
2018-04-19T06:06:17.157Z,1023.67
2018-04-19T06:07:17.164Z,1023.63
2018-04-19T06:08:17.171Z,1023.69
2018-04-19T06:09:17.175Z,1023.75
2018-04-19T06:10:17.180Z,1023.69
2018-04-19T06:11:17.187Z,1023.73
2018-04-19T06:12:17.195Z,1023.76
2018-04-19T06:13:17.199Z,1023.73
2018-04-19T06:14:17.208Z,1023.75
2018-04-19T06:15:17.237Z,1023.80
2018-04-19T06:16:17.220Z,1023.72
2018-04-19T06:17:17.231Z,1023.72
2018-04-19T06:18:17.238Z,1023.74
2018-04-19T06:19:17.245Z,1023.76
2018-04-19T06:20:17.253Z,1023.75
2018-04-19T06:21:17.255Z,1023.77
2018-04-19T06:22:17.262Z,1023.80
2018-04-19T06:23:17.269Z,1023.75
2018-04-19T06:24:17.278Z,1023.80
2018-04-19T06:25:17.288Z,1023.83
2018-04-19T06:26:17.296Z,1023.78
2018-04-19T06:27:17.304Z,1023.83
2018-04-19T06:28:17.309Z,1023.84
2018-04-19T06:29:17.318Z,1023.85
2018-04-19T06:30:17.381Z,1023.85
2018-04-19T06:31:17.333Z,1023.81
2018-04-19T06:32:17.342Z,1023.86
2018-04-19T06:33:17.351Z,1023.94
2018-04-19T06:34:17.359Z,1023.89
2018-04-19T06:35:17.369Z,1023.92
2018-04-19T06:36:17.378Z,1023.97
2018-04-19T06:37:17.388Z,1023.91
2018-04-19T06:38:17.400Z,1023.96
2018-04-19T06:39:17.410Z,1023.97
2018-04-19T06:40:17.416Z,1023.99
2018-04-19T06:41:17.426Z,1024.00
2018-04-19T06:42:17.436Z,1023.97
2018-04-19T06:43:17.446Z,1024.02
2018-04-19T06:44:17.462Z,1024.03
2018-04-19T06:45:17.471Z,1024.05
2018-04-19T06:46:17.477Z,1024.02
2018-04-19T06:47:17.488Z,1024.06
2018-04-19T06:48:17.499Z,1024.07
2018-04-19T06:49:17.511Z,1024.04
2018-04-19T06:50:17.526Z,1024.07
2018-04-19T06:51:17.544Z,1024.09
2018-04-19T06:52:17.543Z,1024.09
2018-04-19T06:53:17.556Z,1024.15
2018-04-19T06:54:17.565Z,1024.14
2018-04-19T06:55:17.728Z,1024.11
2018-04-19T06:56:17.594Z,1024.11
2018-04-19T06:57:17.605Z,1024.13
2018-04-19T06:58:17.620Z,1024.13
2018-04-19T06:59:17.628Z,1024.12
2018-04-19T07:00:17.642Z,1024.13
2018-04-19T07:01:17.650Z,1024.09
2018-04-19T07:02:17.660Z,1024.13
2018-04-19T07:03:17.672Z,1024.14
2018-04-19T07:04:17.686Z,1024.10
2018-04-19T07:05:17.698Z,1024.11
2018-04-19T07:06:17.717Z,1024.11
2018-04-19T07:07:17.723Z,1024.15
2018-04-19T07:08:17.736Z,1024.14
2018-04-19T07:09:17.748Z,1024.14
2018-04-19T07:10:17.764Z,1024.16
2018-04-19T07:11:17.777Z,1024.18
2018-04-19T07:12:17.787Z,1024.19
2018-04-19T07:13:17.801Z,1024.16
2018-04-19T07:14:17.812Z,1024.13
2018-04-19T07:15:17.827Z,1024.19
2018-04-19T07:16:17.844Z,1024.21
2018-04-19T07:17:17.857Z,1024.17
2018-04-19T07:18:17.866Z,1024.20
2018-04-19T07:19:17.880Z,1024.16
2018-04-19T07:20:17.897Z,1024.21
2018-04-19T07:21:17.907Z,1024.17
2018-04-19T07:22:17.921Z,1024.14
2018-04-19T07:23:17.934Z,1024.15
2018-04-19T07:24:17.948Z,1024.20
2018-04-19T07:25:17.963Z,1024.24
2018-04-19T07:26:17.976Z,1024.22
2018-04-19T07:27:17.991Z,1024.14
2018-04-19T07:28:18.008Z,1024.15
2018-04-19T07:29:18.023Z,1024.18
2018-04-19T07:30:18.032Z,1024.17
2018-04-19T07:31:18.048Z,1024.22
2018-04-19T07:32:18.083Z,1024.19
2018-04-19T07:33:18.078Z,1024.19
2018-04-19T07:34:18.092Z,1024.27
2018-04-19T07:35:18.104Z,1024.24
2018-04-19T07:36:18.125Z,1024.25
2018-04-19T07:37:18.137Z,1024.23
2018-04-19T07:38:18.147Z,1024.19
2018-04-19T07:39:18.162Z,1024.23
2018-04-19T07:40:18.184Z,1024.24
2018-04-19T07:41:18.196Z,1024.24
2018-04-19T07:42:18.206Z,1024.22
2018-04-19T07:43:18.222Z,1024.20
2018-04-19T07:44:18.245Z,1024.25
2018-04-19T07:45:18.252Z,1024.26
2018-04-19T07:46:18.267Z,1024.22
2018-04-19T07:47:18.287Z,1024.24
2018-04-19T07:48:18.299Z,1024.23
2018-04-19T07:49:18.313Z,1024.22
2018-04-19T07:50:18.332Z,1024.22
2018-04-19T07:51:18.348Z,1024.22
2018-04-19T07:52:18.360Z,1024.24
2018-04-19T07:53:18.376Z,1024.25
2018-04-19T07:54:18.395Z,1024.31
2018-04-19T07:55:18.410Z,1024.34
2018-04-19T07:56:18.422Z,1024.40
2018-04-19T07:57:18.439Z,1024.35
2018-04-19T07:58:18.456Z,1024.36
2018-04-19T07:59:18.472Z,1024.40
2018-04-19T08:00:18.490Z,1024.25
2018-04-19T08:01:18.504Z,1024.34
2018-04-19T08:02:18.521Z,1024.39
2018-04-19T08:03:18.537Z,1024.35
2018-04-19T08:04:18.553Z,1024.37
2018-04-19T08:05:18.622Z,1024.34
2018-04-19T08:06:18.584Z,1024.33
2018-04-19T08:07:18.600Z,1024.44
2018-04-19T08:08:18.621Z,1024.34
2018-04-19T08:09:18.639Z,1024.35
2018-04-19T08:10:18.650Z,1024.37
2018-04-19T08:11:18.729Z,1024.41
2018-04-19T08:12:18.686Z,1024.36
2018-04-19T08:13:18.703Z,1024.39
2018-04-19T08:14:18.716Z,1024.41
2018-04-19T08:15:18.732Z,1024.38
2018-04-19T08:16:18.749Z,1024.40
2018-04-19T08:17:18.770Z,1024.41
2018-04-19T08:18:18.783Z,1024.52
2018-04-19T08:19:18.798Z,1024.38
2018-04-19T08:20:18.817Z,1024.46
2018-04-19T08:21:18.833Z,1024.35
2018-04-19T08:22:18.852Z,1024.39
2018-04-19T08:23:18.873Z,1024.42
2018-04-19T08:24:18.884Z,1024.45
2018-04-19T08:25:18.902Z,1024.38
2018-04-19T08:26:18.922Z,1024.40
2018-04-19T08:27:18.939Z,1024.33
2018-04-19T08:28:18.956Z,1024.36
2018-04-19T08:29:18.970Z,1024.37
2018-04-19T08:30:18.988Z,1024.35
2018-04-19T08:31:19.004Z,1024.39
2018-04-19T08:32:19.023Z,1024.31
2018-04-19T08:33:19.041Z,1024.38
2018-04-19T08:34:19.057Z,1024.37
2018-04-19T08:35:19.076Z,1024.36
2018-04-19T08:36:19.097Z,1024.43
2018-04-19T08:37:19.115Z,1024.41
2018-04-19T08:38:19.128Z,1024.40
2018-04-19T08:39:19.148Z,1024.40
2018-04-19T08:40:19.165Z,1024.45
2018-04-19T08:41:19.183Z,1024.41
2018-04-19T08:42:19.201Z,1024.39
2018-04-19T08:43:19.219Z,1024.39
2018-04-19T08:44:19.236Z,1024.37
2018-04-19T08:45:19.255Z,1024.42
2018-04-19T08:46:19.277Z,1024.41
2018-04-19T08:47:19.292Z,1024.59
2018-04-19T08:48:19.313Z,1024.45
2018-04-19T08:49:19.334Z,1024.48
2018-04-19T08:50:19.368Z,1024.47
2018-04-19T08:51:19.369Z,1024.49
2018-04-19T08:52:19.383Z,1024.62
2018-04-19T08:53:19.402Z,1024.57
2018-04-19T08:54:19.424Z,1024.52
2018-04-19T08:55:19.440Z,1024.48
2018-04-19T08:56:19.459Z,1024.50
2018-04-19T08:57:19.476Z,1024.51
2018-04-19T08:58:19.494Z,1024.49
2018-04-19T08:59:19.514Z,1024.50
2018-04-19T09:00:19.531Z,1024.44
2018-04-19T09:01:19.551Z,1024.49
2018-04-19T09:02:19.577Z,1024.49
2018-04-19T09:03:19.597Z,1024.58
2018-04-19T09:04:19.606Z,1024.48
2018-04-19T09:05:19.626Z,1024.44
2018-04-19T09:06:19.641Z,1024.48
2018-04-19T09:07:19.661Z,1024.42
2018-04-19T09:08:19.683Z,1024.32
2018-04-19T09:09:19.701Z,1024.35
2018-04-19T09:10:19.715Z,1024.24
2018-04-19T09:11:19.736Z,1024.20
2018-04-19T09:12:19.753Z,1024.20
2018-04-19T09:13:19.772Z,1024.18
2018-04-19T09:14:19.789Z,1024.15
2018-04-19T09:15:19.813Z,1024.14
2018-04-19T09:16:19.827Z,1024.18
2018-04-19T09:17:19.848Z,1024.20
2018-04-19T09:18:19.865Z,1024.21
2018-04-19T09:19:19.884Z,1024.21
2018-04-19T09:20:19.908Z,1024.28
2018-04-19T09:21:19.932Z,1024.29
2018-04-19T09:22:19.947Z,1024.34
2018-04-19T09:23:19.966Z,1024.35
2018-04-19T09:24:19.983Z,1024.44
2018-04-19T09:25:20.004Z,1024.43
2018-04-19T09:26:20.024Z,1024.49
2018-04-19T09:27:20.044Z,1024.53
2018-04-19T09:28:20.064Z,1024.61
2018-04-19T09:29:20.085Z,1024.64
2018-04-19T09:30:20.106Z,1024.60
2018-04-19T09:31:20.126Z,1024.65
2018-04-19T09:32:20.148Z,1024.63
2018-04-19T09:33:20.169Z,1024.68
2018-04-19T09:34:20.194Z,1024.73
2018-04-19T09:35:20.216Z,1024.59
2018-04-19T09:36:20.233Z,1024.33
2018-04-19T09:37:20.255Z,1024.36
2018-04-19T09:38:20.276Z,1024.28
2018-04-19T09:39:20.300Z,1024.20
2018-04-19T09:40:20.319Z,1024.33
2018-04-19T09:41:20.340Z,1024.29
2018-04-19T09:42:20.367Z,1024.26
2018-04-19T09:43:20.390Z,1024.21
2018-04-19T09:44:20.408Z,1024.15
2018-04-19T09:45:20.427Z,1024.17
2018-04-19T09:46:20.452Z,1024.19
2018-04-19T09:47:20.473Z,1024.13
2018-04-19T09:48:20.491Z,1024.23
2018-04-19T09:49:20.513Z,1024.22
2018-04-19T09:50:20.535Z,1024.21
2018-04-19T09:51:20.556Z,1024.18
2018-04-19T09:52:20.584Z,1024.15
2018-04-19T09:53:20.600Z,1024.14
2018-04-19T09:54:20.622Z,1024.15
2018-04-19T09:55:20.644Z,1024.20
2018-04-19T09:56:20.664Z,1023.88
2018-04-19T09:57:20.687Z,1023.86
2018-04-19T09:58:20.708Z,1023.84
2018-04-19T09:59:20.730Z,1023.94
2018-04-19T10:00:20.755Z,1023.87
2018-04-19T10:01:20.778Z,1023.80
2018-04-19T10:02:20.848Z,1023.85
2018-04-19T10:03:20.815Z,1023.75
2018-04-19T10:04:20.840Z,1023.82
2018-04-19T10:05:20.863Z,1023.70
2018-04-19T10:06:20.877Z,1023.70
2018-04-19T10:07:20.900Z,1023.73
2018-04-19T10:08:20.921Z,1023.70
2018-04-19T10:09:20.940Z,1023.68
2018-04-19T10:10:20.962Z,1023.72
2018-04-19T10:11:20.981Z,1023.68
2018-04-19T10:12:21.002Z,1023.70
2018-04-19T10:13:21.023Z,1023.68
2018-04-19T10:14:21.051Z,1023.66
2018-04-19T10:15:21.066Z,1023.69
2018-04-19T10:16:21.084Z,1023.66
2018-04-19T10:17:21.107Z,1023.58
2018-04-19T10:18:21.127Z,1023.59
2018-04-19T10:19:21.149Z,1023.67
2018-04-19T10:20:21.165Z,1023.61
2018-04-19T10:21:21.270Z,1023.62
2018-04-19T10:22:21.204Z,1023.67
2018-04-19T10:23:21.226Z,1023.66
2018-04-19T10:24:21.245Z,1023.66
2018-04-19T10:25:21.267Z,1023.67
2018-04-19T10:26:21.284Z,1023.65
2018-04-19T10:27:21.308Z,1023.60
2018-04-19T10:28:21.325Z,1023.64
2018-04-19T10:29:21.345Z,1023.66
2018-04-19T10:30:21.365Z,1023.56
2018-04-19T10:31:21.385Z,1023.63
2018-04-19T10:32:21.409Z,1023.68
2018-04-19T10:33:21.430Z,1023.74
2018-04-19T10:34:21.444Z,1023.68
2018-04-19T10:35:21.465Z,1023.63
2018-04-19T10:36:21.489Z,1023.60
2018-04-19T10:37:21.511Z,1023.58
2018-04-19T10:38:21.524Z,1023.52
2018-04-19T10:39:21.544Z,1023.55
2018-04-19T10:40:21.566Z,1023.46
2018-04-19T10:41:21.583Z,1023.50
2018-04-19T10:42:21.603Z,1023.44
2018-04-19T10:43:21.622Z,1023.47
2018-04-19T10:44:21.645Z,1023.38
2018-04-19T10:45:21.665Z,1023.41
2018-04-19T10:46:21.681Z,1023.39
2018-04-19T10:47:21.700Z,1023.33
2018-04-19T10:48:21.723Z,1023.35
2018-04-19T10:49:21.740Z,1023.31
2018-04-19T10:50:21.761Z,1023.34
2018-04-19T10:51:21.783Z,1023.34
2018-04-19T10:52:21.797Z,1023.32
2018-04-19T10:53:21.817Z,1023.32
2018-04-19T10:54:21.835Z,1023.37
2018-04-19T10:55:21.852Z,1023.26
2018-04-19T10:56:21.875Z,1023.32
2018-04-19T10:57:21.896Z,1023.31
2018-04-19T10:58:21.912Z,1023.36
2018-04-19T10:59:21.930Z,1023.33
2018-04-19T11:00:21.946Z,1023.25
2018-04-19T11:01:21.965Z,1023.30
2018-04-19T11:02:21.981Z,1023.30
2018-04-19T11:03:21.999Z,1023.19
2018-04-19T11:04:22.017Z,1023.25
2018-04-19T11:05:22.036Z,1023.26
2018-04-19T11:06:22.052Z,1023.33
2018-04-19T11:07:22.069Z,1023.27
2018-04-19T11:08:22.088Z,1023.27
2018-04-19T11:09:22.105Z,1023.15
2018-04-19T11:10:22.126Z,1023.24
2018-04-19T11:11:22.143Z,1023.21
2018-04-19T11:12:22.157Z,1023.19
2018-04-19T11:13:22.174Z,1023.16
2018-04-19T11:14:22.191Z,1023.14
2018-04-19T11:15:22.207Z,1023.16
2018-04-19T11:16:22.230Z,1023.16
2018-04-19T11:17:22.246Z,1023.12
2018-04-19T11:18:22.259Z,1023.12
2018-04-19T11:19:22.276Z,1023.19
2018-04-19T11:20:22.295Z,1023.01
2018-04-19T11:21:22.310Z,1022.92
2018-04-19T11:22:22.327Z,1022.87
2018-04-19T11:23:22.346Z,1022.80
2018-04-19T11:24:22.361Z,1022.73
2018-04-19T11:25:22.381Z,1022.64
2018-04-19T11:26:22.394Z,1022.67
2018-04-19T11:27:22.409Z,1022.64
2018-04-19T11:28:22.428Z,1022.58
2018-04-19T11:29:22.445Z,1022.57
2018-04-19T11:30:22.459Z,1022.63
2018-04-19T11:31:22.474Z,1022.64
2018-04-19T11:32:22.485Z,1022.58
2018-04-19T11:33:22.503Z,1022.51
2018-04-19T11:34:22.516Z,1022.56
2018-04-19T11:35:22.528Z,1022.42
2018-04-19T11:36:22.542Z,1022.41
2018-04-19T11:37:22.556Z,1022.44
2018-04-19T11:38:22.568Z,1022.41
2018-04-19T11:39:22.581Z,1022.38
2018-04-19T11:40:22.594Z,1022.38
2018-04-19T11:41:22.607Z,1022.36
2018-04-19T11:42:22.620Z,1022.31
2018-04-19T11:43:22.632Z,1022.31
2018-04-19T11:44:22.640Z,1022.34
2018-04-19T11:45:22.656Z,1022.26
2018-04-19T11:46:22.662Z,1022.26
2018-04-19T11:47:22.679Z,1022.20
2018-04-19T11:48:22.685Z,1022.20
2018-04-19T11:49:22.695Z,1022.24
2018-04-19T11:50:22.708Z,1022.18
2018-04-19T11:51:22.718Z,1022.19
2018-04-19T11:52:22.725Z,1022.26
2018-04-19T11:53:22.734Z,1022.19
2018-04-19T11:54:22.748Z,1022.16
2018-04-19T11:55:22.757Z,1022.11
2018-04-19T11:56:22.763Z,1022.14
2018-04-19T11:57:22.773Z,1022.15
2018-04-19T11:58:22.781Z,1022.16
2018-04-19T11:59:22.792Z,1022.15
2018-04-19T12:00:22.801Z,1022.13
2018-04-19T12:01:22.810Z,1022.13
2018-04-19T12:02:22.819Z,1022.15
2018-04-19T12:03:22.827Z,1022.13
2018-04-19T12:04:22.837Z,1022.09
2018-04-19T12:05:22.846Z,1022.02
2018-04-19T12:06:22.853Z,1021.98
2018-04-19T12:07:22.862Z,1022.11
2018-04-19T12:08:22.877Z,1022.04
2018-04-19T12:09:22.886Z,1022.00